Terminal Aerodrome Forecast
Issued by NWS

Home | Current Version | Previous Version | Text Only | Print | Product List | Glossary On
Versions: 1 2 3 4 5 6 7 8 9 10 11 12 13 14 15 16 17 18
000
FTUS46 KMTR 231152
TAFSTS
TAF
KSTS 231152Z 2312/2412 VRB03KT 6SM BR BKN004 OVC020
     FM231430 VRB03KT 6SM -SHRA SCT015 BKN040
     FM232000 19006KT P6SM VCSH BKN050
     FM240300 VRB03KT P6SM VCSH BKN050=

USA.gov is the U.S. government's official web portal to all federal, state and local government web resources and services.